Time;durP1;ratioP1;P1;durP2;ratioP2;P2;SDS_P1;SDS_P2;PMS_P1;PMS_P2;Temp;Humidity;BMP_temperature;BMP_pressure;BME280_temperature;BME280_humidity;BME280_pressure;Samples;Min_cycle;Max_cycle;Signal;HPM_P1;HPM_P2
2020/12/09 00:01:46;;;;;;;45.75;27.27;;;;;;;-0.48;100.00;100860.44;5040080;28;20028;-81
2020/12/09 00:04:11;;;;;;;51.88;27.10;;;;;;;-0.58;100.00;100857.81;5041340;28;20119;-80
2020/12/09 00:06:38;;;;;;;52.20;28.85;;;;;;;-0.60;100.00;100854.38;5024773;28;20128;-80
2020/12/09 00:09:06;;;;;;;52.85;27.85;;;;;;;-0.57;100.00;100862.13;5021355;28;20033;-79
2020/12/09 00:11:31;;;;;;;50.00;28.92;;;;;;;-0.64;100.00;100863.00;5042307;28;20069;-79
2020/12/09 00:13:57;;;;;;;50.63;27.77;;;;;;;-0.67;100.00;100857.78;5000552;28;20108;-79
2020/12/09 00:16:23;;;;;;;53.00;27.55;;;;;;;-0.76;100.00;100852.59;5041407;28;20040;-79
2020/12/09 00:18:48;;;;;;;53.70;27.80;;;;;;;-0.72;100.00;100856.06;5039654;28;20021;-79
2020/12/09 00:21:18;;;;;;;47.28;27.25;;;;;;;-0.67;100.00;100857.78;5044857;28;20100;-79
2020/12/09 00:23:44;;;;;;;57.40;29.42;;;;;;;-0.63;100.00;100853.47;5036099;28;20033;-79
2020/12/09 00:26:09;;;;;;;61.97;31.67;;;;;;;-0.32;100.00;100859.56;5038739;28;20035;-79
2020/12/09 00:28:35;;;;;;;60.38;30.38;;;;;;;-0.04;100.00;100861.31;5037316;28;20030;-79
2020/12/09 00:31:00;;;;;;;68.85;35.70;;;;;;;0.26;100.00;100872.53;5040814;28;20057;-80
2020/12/09 00:33:25;;;;;;;67.85;35.15;;;;;;;0.33;100.00;100857.78;5018882;28;20026;-79
2020/12/09 00:35:50;;;;;;;70.68;34.28;;;;;;;0.08;100.00;100855.22;5036538;28;20021;-78
2020/12/09 00:38:16;;;;;;;59.60;30.88;;;;;;;-0.11;100.00;100866.47;5023503;28;20029;-78
2020/12/09 00:40:44;;;;;;;66.93;33.70;;;;;;;-0.22;100.00;100869.09;5042520;28;20374;-78
2020/12/09 00:43:09;;;;;;;69.35;34.65;;;;;;;-0.17;100.00;100862.16;5018045;28;20033;-78
2020/12/09 00:45:34;;;;;;;64.00;33.13;;;;;;;-0.15;100.00;100876.03;5022700;28;20492;-78
2020/12/09 00:47:59;;;;;;;65.18;34.97;;;;;;;-0.18;100.00;100878.63;5038008;28;20040;-78
2020/12/09 00:50:28;;;;;;;61.25;33.60;;;;;;;-0.07;100.00;100876.00;5041662;28;20040;-78
2020/12/09 00:52:53;;;;;;;56.22;31.10;;;;;;;-0.31;100.00;100869.94;5039349;28;20025;-79
2020/12/09 00:55:18;;;;;;;55.22;31.05;;;;;;;-0.48;100.00;100866.47;5038629;28;20032;-78
2020/12/09 00:57:44;;;;;;;53.53;29.92;;;;;;;-0.65;100.00;100865.59;5024149;28;20033;-79
2020/12/09 01:00:09;;;;;;;61.83;31.35;;;;;;;-0.54;100.00;100872.53;5026210;28;20039;-79
2020/12/09 01:02:35;;;;;;;61.83;33.38;;;;;;;-0.44;100.00;100872.56;5021404;28;20025;-79
2020/12/09 01:05:00;;;;;;;64.15;32.95;;;;;;;-0.53;100.00;100868.22;5035201;28;20042;-78
2020/12/09 01:07:26;;;;;;;74.70;36.92;;;;;;;-0.44;100.00;100857.84;5041092;28;20052;-79
2020/12/09 01:09:51;;;;;;;64.05;33.92;;;;;;;-0.57;100.00;100877.72;5017759;28;20104;-79
2020/12/09 01:12:16;;;;;;;69.25;33.95;;;;;;;-0.42;100.00;100871.69;5005130;28;20039;-79
2020/12/09 01:14:42;;;;;;;241.20;44.50;;;;;;;-0.03;100.00;100881.22;5022338;28;20529;-78
2020/12/09 01:17:07;;;;;;;165.32;37.58;;;;;;;0.21;100.00;100877.72;5038806;28;20040;-80
2020/12/09 01:19:33;;;;;;;301.83;44.45;;;;;;;0.20;100.00;100867.31;5037905;28;20037;-79
2020/12/09 01:21:58;;;;;;;294.63;41.42;;;;;;;0.23;100.00;100885.53;5015520;28;20051;-79
2020/12/09 01:24:23;;;;;;;273.05;37.28;;;;;;;0.12;100.00;100882.06;5036429;28;20529;-79
2020/12/09 01:26:49;;;;;;;331.23;38.35;;;;;;;0.03;100.00;100893.34;5037893;28;20028;-79
2020/12/09 01:29:15;;;;;;;398.70;39.92;;;;;;;-0.16;100.00;100896.78;5035314;28;20033;-79
2020/12/09 01:31:41;;;;;;;331.77;38.65;;;;;;;-0.20;100.00;100890.75;5043473;28;20021;-80
2020/12/09 01:34:07;;;;;;;301.00;37.13;;;;;;;-0.23;100.00;100897.66;5024067;28;20108;-79
2020/12/09 01:36:32;;;;;;;406.83;45.13;;;;;;;-0.28;100.00;100893.34;5033324;28;20148;-80
2020/12/09 01:38:57;;;;;;;403.10;43.70;;;;;;;-0.43;100.00;100901.09;5021520;28;20482;-79
2020/12/09 01:41:24;;;;;;;173.10;32.33;;;;;;;-0.34;100.00;100908.06;5022833;28;20167;-79
2020/12/09 01:43:50;;;;;;;196.77;33.67;;;;;;;-0.38;100.00;100907.19;5037137;28;20552;-80
2020/12/09 01:46:27;;;;;;;197.48;32.63;;;;;;;-0.42;100.00;100901.97;5029310;28;20084;-80
2020/12/09 01:48:53;;;;;;;469.17;48.53;;;;;;;-0.55;100.00;100904.56;5036814;28;20033;-79
2020/12/09 01:51:19;;;;;;;390.17;37.95;;;;;;;-0.67;100.00;100901.06;5041969;28;20035;-79
2020/12/09 01:53:44;;;;;;;265.48;34.08;;;;;;;-0.64;100.00;100901.94;5041500;28;20021;-79
2020/12/09 01:56:10;;;;;;;210.38;30.25;;;;;;;-0.75;100.00;100902.75;5041211;28;20504;-79
2020/12/09 01:58:35;;;;;;;233.93;31.83;;;;;;;-0.81;100.00;100903.59;5043004;28;20183;-80
2020/12/09 02:01:00;;;;;;;194.00;30.80;;;;;;;-0.83;100.00;100906.22;5039905;28;20036;-79
2020/12/09 02:03:26;;;;;;;146.77;28.42;;;;;;;-0.81;100.00;100906.19;5038645;28;20033;-79
2020/12/09 02:05:51;;;;;;;193.40;31.80;;;;;;;-0.83;100.00;100906.22;5018008;28;20570;-80
2020/12/09 02:08:17;;;;;;;157.77;30.80;;;;;;;-0.79;100.00;100912.28;5035114;28;20044;-81
2020/12/09 02:10:42;;;;;;;159.25;28.88;;;;;;;-0.85;100.00;100923.50;5031685;28;20056;-80
2020/12/09 02:13:07;;;;;;;170.68;31.55;;;;;;;-0.89;100.00;100920.91;5042154;28;20052;-80
2020/12/09 02:15:33;;;;;;;132.93;29.15;;;;;;;-0.89;100.00;100926.94;5044149;28;20470;-79
2020/12/09 02:17:58;;;;;;;215.52;31.98;;;;;;;-0.85;100.00;100926.13;5036309;28;20112;-78
2020/12/09 02:20:23;;;;;;;107.15;27.95;;;;;;;-0.94;100.00;100912.22;5041996;28;20083;-78
2020/12/09 02:22:53;;;;;;;147.02;28.90;;;;;;;-0.95;100.00;100931.25;5018755;28;20382;-78
2020/12/09 02:25:18;;;;;;;163.23;31.77;;;;;;;-0.95;100.00;100926.06;5035196;28;20056;-79
2020/12/09 02:27:44;;;;;;;172.88;29.52;;;;;;;-0.91;100.00;100930.38;5035403;28;20060;-79
2020/12/09 02:30:09;;;;;;;141.75;30.40;;;;;;;-0.92;100.00;100926.94;5038202;28;20052;-79
2020/12/09 02:32:34;;;;;;;137.20;29.27;;;;;;;-0.84;100.00;100930.44;5032162;28;20028;-79
2020/12/09 02:35:00;;;;;;;139.38;28.33;;;;;;;-0.77;100.00;100936.50;5008327;28;20401;-78
2020/12/09 02:37:25;;;;;;;228.20;35.10;;;;;;;-0.80;100.00;100937.38;5034725;28;20025;-79
2020/12/09 02:39:50;;;;;;;199.68;30.77;;;;;;;-0.69;100.00;100936.53;5038929;28;20108;-79
2020/12/09 02:42:15;;;;;;;252.02;33.33;;;;;;;-0.76;100.00;100922.66;5038626;28;20033;-79
2020/12/09 02:44:41;;;;;;;359.40;40.83;;;;;;;-0.80;100.00;100932.19;5022371;28;20912;-79
2020/12/09 02:47:06;;;;;;;269.80;34.65;;;;;;;-0.78;100.00;100934.78;5038440;28;20084;-78
2020/12/09 02:49:31;;;;;;;285.27;34.22;;;;;;;-0.73;100.00;100943.44;5033039;28;20029;-78
2020/12/09 02:51:56;;;;;;;260.65;35.03;;;;;;;-0.66;100.00;100942.59;5037229;28;20041;-79
2020/12/09 02:54:22;;;;;;;295.50;35.13;;;;;;;-0.64;100.00;100938.28;4997420;28;20025;-79
2020/12/09 02:56:47;;;;;;;220.45;31.95;;;;;;;-0.66;100.00;100929.59;5032010;28;20022;-79
2020/12/09 02:59:13;;;;;;;254.65;31.95;;;;;;;-0.69;100.00;100923.56;5034764;28;20481;-79
2020/12/09 03:05:00;;;;;;;144.25;28.83;;;;;;;-0.74;100.00;100926.13;5035506;28;20045;-78
2020/12/09 03:07:25;;;;;;;203.55;35.13;;;;;;;-0.84;100.00;100926.97;5034061;28;20029;-79
2020/12/09 03:09:51;;;;;;;240.32;30.02;;;;;;;-0.98;100.00;100928.66;4999216;28;20533;-79
2020/12/09 03:12:16;;;;;;;175.40;28.95;;;;;;;-0.93;100.00;100932.97;5031122;28;20021;-78
2020/12/09 03:14:41;;;;;;;232.70;33.53;;;;;;;-0.90;100.00;100937.34;5017223;28;20059;-78
2020/12/09 03:17:06;;;;;;;241.82;34.55;;;;;;;-0.85;100.00;100936.50;5028332;28;20045;-78
2020/12/09 03:19:32;;;;;;;230.88;28.20;;;;;;;-0.97;100.00;100933.81;5001099;28;20033;-78
2020/12/09 03:21:57;;;;;;;176.52;30.90;;;;;;;-1.10;100.00;100939.84;5033626;28;20052;-78
2020/12/09 03:24:22;;;;;;;209.55;32.00;;;;;;;-1.07;100.00;100938.09;5021121;28;20031;-78
2020/12/09 03:26:48;;;;;;;208.52;30.83;;;;;;;-1.07;100.00;100932.91;5033329;28;20064;-78
2020/12/09 03:29:13;;;;;;;188.30;28.75;;;;;;;-1.02;100.00;100932.94;5037185;28;20057;-78
2020/12/09 03:31:38;;;;;;;231.50;33.05;;;;;;;-1.04;100.00;100932.09;5036428;28;20440;-79
2020/12/09 03:34:03;;;;;;;217.13;32.35;;;;;;;-1.08;100.00;100928.59;5040378;28;20037;-78
2020/12/09 03:36:29;;;;;;;168.05;28.23;;;;;;;-1.04;100.00;100939.88;5053986;28;20025;-79
2020/12/09 03:38:54;;;;;;;190.77;29.48;;;;;;;-0.98;100.00;100946.81;5056114;28;20025;-80
2020/12/09 03:41:19;;;;;;;172.75;29.13;;;;;;;-1.02;100.00;100939.88;5061218;28;20045;-79
2020/12/09 03:43:44;;;;;;;145.70;26.48;;;;;;;-0.94;100.00;100933.84;5055010;28;20025;-78
2020/12/09 03:46:10;;;;;;;173.90;30.02;;;;;;;-0.89;100.00;100944.25;5042817;28;20048;-80
2020/12/09 03:48:36;;;;;;;125.13;27.70;;;;;;;-0.92;100.00;100950.28;5022745;28;20040;-79
2020/12/09 03:51:01;;;;;;;159.30;27.42;;;;;;;-0.90;100.00;100951.19;5062495;28;20039;-80
2020/12/09 03:53:27;;;;;;;167.48;29.48;;;;;;;-0.83;100.00;100957.25;5038687;28;20025;-80
2020/12/09 03:55:52;;;;;;;226.32;34.30;;;;;;;-0.78;100.00;100950.34;5040391;28;20048;-79
2020/12/09 03:58:18;;;;;;;198.80;29.33;;;;;;;-0.79;100.00;100946.03;5036476;28;20531;-79
2020/12/09 04:00:43;;;;;;;139.93;27.50;;;;;;;-0.82;100.00;100948.59;5000825;28;20030;-79
2020/12/09 04:03:08;;;;;;;142.35;29.08;;;;;;;-0.73;100.00;100940.84;5035867;28;20059;-78
2020/12/09 04:05:33;;;;;;;111.88;28.40;;;;;;;-0.73;100.00;100946.03;5022323;28;20076;-78
2020/12/09 04:07:59;;;;;;;136.98;28.92;;;;;;;-0.67;100.00;100940.84;5042194;28;20036;-78
2020/12/09 04:10:24;;;;;;;106.57;28.58;;;;;;;-0.65;100.00;100948.66;5038527;28;20021;-78
2020/12/09 04:12:49;;;;;;;98.93;26.10;;;;;;;-0.68;100.00;100939.13;5020686;28;20053;-79
2020/12/09 04:15:15;;;;;;;101.30;28.65;;;;;;;-0.66;100.00;100949.50;5016780;28;20036;-78
2020/12/09 04:17:40;;;;;;;125.53;29.33;;;;;;;-0.67;100.00;100951.25;5035171;28;20478;-78
2020/12/09 04:20:07;;;;;;;174.02;30.83;;;;;;;-0.62;100.00;100938.28;5019509;28;20112;-79
2020/12/09 04:22:33;;;;;;;158.25;31.42;;;;;;;-0.64;100.00;100946.06;5041332;28;20029;-79
2020/12/09 04:24:58;;;;;;;127.20;31.13;;;;;;;-0.66;100.00;100940.00;5025431;28;20060;-78
2020/12/09 04:27:23;;;;;;;168.57;33.08;;;;;;;-0.80;100.00;100936.50;5042423;28;20481;-79
2020/12/09 04:29:49;;;;;;;223.93;34.45;;;;;;;-0.88;100.00;100940.78;5045422;28;20033;-78
2020/12/09 04:32:14;;;;;;;166.50;31.95;;;;;;;-0.80;100.00;100939.09;5026495;28;20104;-78
2020/12/09 04:34:39;;;;;;;116.05;33.58;;;;;;;-0.74;100.00;100944.31;5026475;28;20021;-78
2020/12/09 04:37:07;;;;;;;159.10;35.83;;;;;;;-0.72;100.00;100942.56;5023662;28;20417;-80
2020/12/09 04:39:32;;;;;;;115.50;36.45;;;;;;;-0.70;100.00;100935.69;5041349;28;20028;-80
2020/12/09 04:41:57;;;;;;;174.13;38.40;;;;;;;-0.75;100.00;100939.09;5039526;28;20100;-80
2020/12/09 04:44:24;;;;;;;184.88;39.17;;;;;;;-0.76;100.00;100948.59;5037673;28;20124;-81
2020/12/09 04:46:51;;;;;;;110.10;38.97;;;;;;;-0.82;100.00;100952.06;5040260;28;20032;-79
2020/12/09 04:49:19;;;;;;;138.23;41.58;;;;;;;-0.87;100.00;100950.31;5021314;28;20032;-79
2020/12/09 04:52:06;;;;;;;152.98;44.63;;;;;;;-0.85;100.00;100954.66;5043972;28;20021;-80
2020/12/09 04:54:37;;;;;;;125.07;42.50;;;;;;;-0.85;100.00;100954.66;5038389;28;20091;-79
2020/12/09 04:57:13;;;;;;;141.50;39.55;;;;;;;-0.83;100.00;100950.31;5036700;28;20053;-79
2020/12/09 04:59:41;;;;;;;127.28;39.00;;;;;;;-0.86;100.00;100949.44;5010542;28;20074;-79
2020/12/09 05:02:08;;;;;;;126.43;36.20;;;;;;;-0.88;100.00;100962.41;5040130;28;20522;-79
2020/12/09 05:04:35;;;;;;;126.47;35.60;;;;;;;-0.94;100.00;100964.13;5042738;28;20061;-81
2020/12/09 05:07:05;;;;;;;187.63;38.25;;;;;;;-0.97;100.00;100956.31;5036831;28;20028;-79
2020/12/09 05:09:37;;;;;;;137.23;36.45;;;;;;;-1.01;100.00;100960.63;5026365;28;20464;-79
2020/12/09 05:12:04;;;;;;;140.50;34.83;;;;;;;-1.03;100.00;100961.47;5033510;28;20037;-78
2020/12/09 05:14:33;;;;;;;149.68;35.72;;;;;;;-1.13;100.00;100965.75;5041222;28;20017;-80
2020/12/09 05:16:59;;;;;;;125.90;35.67;;;;;;;-1.17;100.00;100959.69;5035605;28;20456;-79
2020/12/09 05:19:25;;;;;;;139.80;33.42;;;;;;;-1.10;100.00;100965.78;5041080;28;20109;-78
2020/12/09 05:21:51;;;;;;;129.70;33.38;;;;;;;-1.13;100.00;100968.34;5020589;28;20025;-79
2020/12/09 05:24:19;;;;;;;129.88;32.60;;;;;;;-1.03;100.00;100975.31;5041040;28;20449;-78
2020/12/09 05:26:44;;;;;;;131.93;34.53;;;;;;;-1.12;100.00;100964.88;5034206;28;20048;-78
2020/12/09 05:29:19;;;;;;;135.68;31.80;;;;;;;-1.14;100.00;100971.81;5038718;28;20060;-79
2020/12/09 05:31:47;;;;;;;159.65;34.58;;;;;;;-1.12;100.00;100990.84;5036481;28;20025;-77
2020/12/09 05:34:32;;;;;;;132.75;34.47;;;;;;;-1.14;100.00;100988.25;5041737;28;20021;-78
2020/12/09 05:37:01;;;;;;;124.90;33.35;;;;;;;-0.99;100.00;100989.19;5014226;28;20112;-79
2020/12/09 05:39:27;;;;;;;188.63;36.58;;;;;;;-1.08;100.00;100987.41;5039539;28;20029;-79
2020/12/09 05:41:53;;;;;;;173.40;37.72;;;;;;;-1.15;100.00;100981.31;5016073;28;20029;-78
2020/12/09 05:44:22;;;;;;;198.05;36.58;;;;;;;-1.10;100.00;100991.72;5038534;28;20529;-79
2020/12/09 05:47:03;;;;;;;174.32;36.10;;;;;;;-1.05;100.00;101000.41;5026945;28;20033;-77
2020/12/09 05:49:31;;;;;;;106.88;32.08;;;;;;;-0.98;100.00;100993.50;5018095;28;20071;-79
2020/12/09 05:52:16;;;;;;;119.15;30.45;;;;;;;-0.99;100.00;100996.97;5018662;28;20029;-78
2020/12/09 05:54:44;;;;;;;84.80;31.92;;;;;;;-0.94;100.00;100996.13;5023680;28;20021;-78
2020/12/09 05:57:12;;;;;;;108.72;30.65;;;;;;;-0.83;100.00;100997.03;5017512;28;20041;-78
2020/12/09 05:59:40;;;;;;;93.03;33.35;;;;;;;-0.91;100.00;100985.75;5040317;28;20047;-79
2020/12/09 06:02:15;;;;;;;124.25;33.38;;;;;;;-0.95;100.00;100999.59;5020234;28;20033;-79
2020/12/09 06:04:51;;;;;;;121.55;33.97;;;;;;;-0.91;100.00;101000.44;5016586;28;20099;-78
2020/12/09 06:07:17;;;;;;;127.38;35.17;;;;;;;-0.86;100.00;100991.81;5034777;28;20417;-79
2020/12/09 06:10:04;;;;;;;92.00;31.73;;;;;;;-0.95;100.00;100991.81;5022206;28;20068;-79
2020/12/09 06:12:29;;;;;;;;;;;;;;;-0.93;100.00;100997.00;5015790;28;20037;-79
2020/12/09 06:15:12;;;;;;;144.60;32.77;;;;;;;-0.88;100.00;101003.06;5038421;28;20281;-78
2020/12/09 06:17:37;;;;;;;138.68;33.70;;;;;;;-0.88;100.00;100990.97;5038637;28;20025;-79
2020/12/09 06:20:03;;;;;;;82.80;33.92;;;;;;;-0.73;100.00;100997.94;5003111;28;20397;-79
2020/12/09 06:22:31;;;;;;;88.85;31.20;;;;;;;-0.69;100.00;100993.66;5037078;28;20469;-79
2020/12/09 06:25:02;;;;;;;96.93;35.25;;;;;;;-0.70;100.00;100986.69;5039549;28;20107;-78
2020/12/09 06:27:30;;;;;;;100.78;34.72;;;;;;;-0.61;100.00;100997.97;5019924;28;20107;-79
2020/12/09 06:29:56;;;;;;;127.97;36.83;;;;;;;-0.70;100.00;100989.28;5040345;28;20390;-78
2020/12/09 06:32:22;;;;;;;146.95;37.85;;;;;;;-0.71;100.00;100991.03;5029411;28;20036;-80
2020/12/09 06:35:06;;;;;;;108.30;33.00;;;;;;;-0.85;100.00;100990.13;5018274;28;20025;-79
2020/12/09 06:37:31;;;;;;;100.45;31.98;;;;;;;-0.94;100.00;100980.56;5040066;28;20083;-78
2020/12/09 06:40:08;;;;;;;101.22;32.67;;;;;;;-0.95;100.00;100997.00;5020835;28;20041;-79
2020/12/09 06:42:33;;;;;;;86.63;29.75;;;;;;;-0.97;100.00;101006.47;5033469;28;20478;-78
2020/12/09 06:45:00;;;;;;;102.32;30.50;;;;;;;-1.07;100.00;101002.09;5033419;28;20148;-78
2020/12/09 06:47:26;;;;;;;83.28;29.40;;;;;;;-0.99;100.00;101000.44;5034317;28;20021;-79
2020/12/09 06:49:51;;;;;;;89.97;28.60;;;;;;;-0.91;100.00;101006.50;5037823;28;20043;-78
2020/12/09 06:52:28;;;;;;;69.07;28.90;;;;;;;-0.87;100.00;100997.00;5037650;28;20422;-78
2020/12/09 06:54:54;;;;;;;70.00;29.40;;;;;;;-0.90;100.00;100990.09;5038394;28;20029;-78
2020/12/09 06:57:30;;;;;;;78.68;29.00;;;;;;;-0.87;100.00;100991.81;5002579;28;20507;-77
2020/12/09 07:00:12;;;;;;;74.43;29.40;;;;;;;-0.89;100.00;101001.34;5036322;28;20539;-78
2020/12/09 07:02:42;;;;;;;72.68;29.75;;;;;;;-0.83;100.00;101011.75;5018285;28;20037;-80
2020/12/09 07:05:10;;;;;;;75.22;30.38;;;;;;;-0.74;100.00;101003.16;5032709;28;20053;-81
2020/12/09 07:07:44;;;;;;;86.55;30.33;;;;;;;-0.76;100.00;101015.22;5030567;28;20044;-81
2020/12/09 07:10:23;;;;;;;95.57;33.33;;;;;;;-0.70;100.00;101004.88;4973119;28;20088;-80
2020/12/09 07:12:59;;;;;;;100.28;30.85;;;;;;;-0.64;100.00;101004.91;5028424;28;20535;-78
2020/12/09 07:15:24;;;;;;;98.55;31.05;;;;;;;-0.66;100.00;101004.88;5017199;28;20183;-77
2020/12/09 07:17:50;;;;;;;80.63;31.25;;;;;;;-0.59;100.00;101000.59;5014822;28;20618;-79
2020/12/09 07:20:15;;;;;;;83.88;31.13;;;;;;;-0.58;100.00;101007.53;5040434;28;20513;-81
2020/12/09 07:22:40;;;;;;;102.70;30.95;;;;;;;-0.57;100.00;101006.66;5038096;28;20061;-81
2020/12/09 07:25:05;;;;;;;101.78;33.45;;;;;;;-0.58;100.00;101003.19;5019919;28;20025;-80
2020/12/09 07:27:34;;;;;;;93.25;32.38;;;;;;;-0.61;100.00;101010.09;5035630;28;20033;-80
2020/12/09 07:30:04;;;;;;;102.88;32.50;;;;;;;-0.62;100.00;101010.97;5037884;28;20029;-81
2020/12/09 07:32:30;;;;;;;99.65;36.28;;;;;;;-0.54;100.00;101011.88;5027249;28;20021;-81
2020/12/09 07:34:57;;;;;;;117.63;34.20;;;;;;;-0.66;100.00;100998.81;5038381;28;20101;-79
2020/12/09 07:37:25;;;;;;;116.20;36.05;;;;;;;-0.59;100.00;101011.00;5041531;28;20505;-80
2020/12/09 07:39:52;;;;;;;127.72;36.65;;;;;;;-0.56;100.00;101013.59;5036974;28;20083;-80
2020/12/09 07:42:20;;;;;;;112.32;37.85;;;;;;;-0.54;100.00;101011.88;5038100;28;20112;-81
2020/12/09 07:44:46;;;;;;;117.22;37.28;;;;;;;-0.55;100.00;101008.41;5018467;28;20029;-80
2020/12/09 07:47:12;;;;;;;101.88;36.15;;;;;;;-0.52;100.00;101018.78;5039969;28;20030;-79
2020/12/09 07:49:49;;;;;;;110.68;36.30;;;;;;;-0.56;100.00;101016.19;5037356;28;20029;-79
2020/12/09 07:52:22;;;;;;;121.25;38.03;;;;;;;-0.53;100.00;101018.78;5004329;28;20032;-79
2020/12/09 07:54:52;;;;;;;118.57;37.13;;;;;;;-0.50;100.00;101016.22;5041373;28;20036;-79
2020/12/09 07:57:17;;;;;;;129.57;36.95;;;;;;;-0.48;100.00;101021.41;5037346;28;20028;-80
2020/12/09 07:59:42;;;;;;;135.98;36.88;;;;;;;-0.46;100.00;101030.06;5022861;28;20038;-77
2020/12/09 08:02:22;;;;;;;116.80;36.13;;;;;;;-0.42;100.00;101024.03;5034885;28;20486;-79
2020/12/09 08:05:05;;;;;;;129.20;35.28;;;;;;;-0.39;100.00;101032.69;5037372;28;20056;-79
2020/12/09 08:07:30;;;;;;;107.63;34.40;;;;;;;-0.43;100.00;101020.56;5034963;28;20018;-80
2020/12/09 08:10:04;;;;;;;103.00;34.33;;;;;;;-0.40;100.00;101032.66;5039520;28;20448;-78
2020/12/09 08:12:31;;;;;;;120.05;37.83;;;;;;;-0.38;100.00;101026.63;5023239;28;20031;-80
2020/12/09 08:14:57;;;;;;;107.43;38.63;;;;;;;-0.28;100.00;101028.41;5037766;28;20112;-77
2020/12/09 08:17:27;;;;;;;104.57;35.65;;;;;;;-0.28;100.00;101028.41;5040039;28;20075;-78
2020/12/09 08:20:07;;;;;;;108.70;31.73;;;;;;;-0.35;100.00;101025.75;5015289;28;20032;-78
2020/12/09 08:22:33;;;;;;;87.38;27.17;;;;;;;-0.36;100.00;101031.81;5031063;28;20650;-81
2020/12/09 08:25:02;;;;;;;103.88;34.70;;;;;;;-0.35;100.00;101036.16;5036699;28;20029;-79
2020/12/09 08:27:27;;;;;;;111.13;33.65;;;;;;;-0.34;100.00;101035.31;5041109;28;20025;-78
2020/12/09 08:29:53;;;;;;;100.85;32.55;;;;;;;-0.36;100.00;101029.22;5043808;28;20027;-77
2020/12/09 08:32:18;;;;;;;90.93;30.48;;;;;;;-0.42;100.00;101024.03;5039389;28;20087;-82
2020/12/09 08:34:43;;;;;;;105.38;31.70;;;;;;;-0.41;100.00;101017.97;5055974;28;20021;-78
2020/12/09 08:37:16;;;;;;;104.15;31.17;;;;;;;-0.35;100.00;101024.06;5036515;28;20060;-78
2020/12/09 08:39:41;;;;;;;110.35;30.08;;;;;;;-0.42;100.00;101027.47;5051622;28;20013;-76
2020/12/09 08:42:06;;;;;;;94.85;31.63;;;;;;;-0.34;100.00;101020.59;5036648;28;20103;-79
2020/12/09 08:44:32;;;;;;;78.38;28.48;;;;;;;-0.33;100.00;101013.66;5041969;28;20036;-79
2020/12/09 08:46:57;;;;;;;80.68;28.52;;;;;;;-0.28;100.00;101014.56;5041234;28;20020;-78
2020/12/09 08:49:22;;;;;;;87.50;29.08;;;;;;;-0.28;100.00;101006.75;5035148;28;20033;-78
2020/12/09 08:51:47;;;;;;;84.60;29.25;;;;;;;-0.15;100.00;101012.84;5022215;28;20040;-78
2020/12/09 08:54:13;;;;;;;86.40;27.27;;;;;;;-0.16;100.00;101017.16;5038266;28;20368;-78
2020/12/09 08:56:38;;;;;;;89.07;30.48;;;;;;;-0.11;100.00;101012.84;5039707;28;20021;-77
2020/12/09 08:59:03;;;;;;;81.80;32.17;;;;;;;-0.07;100.00;101013.72;5021276;28;20044;-79
2020/12/09 09:01:35;;;;;;;93.72;31.13;;;;;;;-0.09;100.00;101005.94;5026053;28;20025;-77
2020/12/09 09:04:06;;;;;;;78.70;29.02;;;;;;;-0.18;100.00;101011.09;5036208;28;20031;-76
2020/12/09 09:06:31;;;;;;;100.85;28.42;;;;;;;-0.19;100.00;101005.91;5039211;28;20041;-78
2020/12/09 09:08:57;;;;;;;71.60;29.88;;;;;;;-0.21;100.00;101015.41;5001423;28;20033;-78
2020/12/09 09:11:24;;;;;;;80.38;30.38;;;;;;;-0.24;100.00;100995.53;5034421;28;20032;-79
2020/12/09 09:13:49;;;;;;;77.55;27.88;;;;;;;-0.10;100.00;101008.50;5035710;28;20370;-79
2020/12/09 09:16:14;;;;;;;81.55;26.17;;;;;;;-0.17;100.00;101015.44;5038056;28;20058;-79
2020/12/09 09:18:40;;;;;;;91.53;29.02;;;;;;;-0.11;100.00;101011.97;5034470;28;20063;-77
2020/12/09 09:21:05;;;;;;;89.30;27.98;;;;;;;-0.05;100.00;101014.59;5032623;28;20088;-79
2020/12/09 09:23:30;;;;;;;80.07;29.02;;;;;;;-0.08;100.00;101015.47;4998793;28;20029;-77
2020/12/09 09:25:56;;;;;;;79.43;28.27;;;;;;;-0.07;100.00;101018.91;5031687;28;20025;-78
2020/12/09 09:28:21;;;;;;;72.22;23.17;;;;;;;-0.11;100.00;101019.78;5017234;28;20105;-79
2020/12/09 09:30:46;;;;;;;71.95;26.05;;;;;;;-0.08;100.00;101014.59;5040683;28;20047;-79
2020/12/09 09:33:12;;;;;;;71.35;26.63;;;;;;;-0.08;100.00;101012.88;5036613;28;20032;-79
2020/12/09 09:35:37;;;;;;;76.97;28.08;;;;;;;-0.04;100.00;101016.34;5039931;28;20065;-78
2020/12/09 09:38:02;;;;;;;80.10;29.02;;;;;;;0.02;100.00;101015.47;5037867;28;20041;-79
2020/12/09 09:40:28;;;;;;;99.90;29.63;;;;;;;0.05;100.00;101015.47;5015617;28;20037;-78
2020/12/09 09:42:54;;;;;;;103.88;35.03;;;;;;;0.07;100.00;101021.56;5014946;28;20044;-78
2020/12/09 09:45:21;;;;;;;109.97;35.70;;;;;;;0.10;100.00;101024.13;5034877;28;20040;-79
2020/12/09 09:47:46;;;;;;;94.65;32.67;;;;;;;0.21;100.00;101017.25;5018506;28;20140;-79
2020/12/09 09:50:12;;;;;;;103.53;35.20;;;;;;;0.23;100.00;101018.09;5039441;28;20489;-78
2020/12/09 09:52:37;;;;;;;101.25;34.35;;;;;;;0.20;100.00;101018.06;5035875;28;20029;-79
2020/12/09 09:55:03;;;;;;;99.53;33.17;;;;;;;0.21;100.00;101023.31;5013465;28;20359;-78
2020/12/09 09:57:29;;;;;;;96.63;34.03;;;;;;;0.20;100.00;101011.19;5033222;28;20036;-79
2020/12/09 09:59:54;;;;;;;105.65;38.33;;;;;;;0.23;100.00;101013.75;5015606;28;20100;-80
2020/12/09 10:02:19;;;;;;;104.68;35.22;;;;;;;0.24;100.00;101012.03;5017930;28;20532;-78
2020/12/09 10:04:45;;;;;;;90.07;32.63;;;;;;;0.12;100.00;101015.50;5033667;28;20132;-78
2020/12/09 10:07:11;;;;;;;95.70;31.83;;;;;;;0.00;100.00;101010.28;5033141;28;20382;-80
2020/12/09 10:09:36;;;;;;;80.18;27.95;;;;;;;-0.01;100.00;101009.41;5032113;28;20048;-79
2020/12/09 10:12:01;;;;;;;88.63;30.98;;;;;;;0.07;100.00;101012.03;5025806;28;20037;-78
2020/12/09 10:14:26;;;;;;;90.28;29.80;;;;;;;0.18;100.00;101006.81;5034561;28;20080;-78
2020/12/09 10:16:52;;;;;;;98.03;30.20;;;;;;;0.27;100.00;101006.84;5034423;28;20018;-80
2020/12/09 10:19:18;;;;;;;95.68;31.58;;;;;;;0.29;100.00;101001.63;5032040;28;20029;-78
2020/12/09 10:21:43;;;;;;;89.03;32.30;;;;;;;0.32;100.00;100996.44;5035262;28;20096;-79
2020/12/09 10:24:09;;;;;;;99.90;33.80;;;;;;;0.39;100.00;101003.34;5017834;28;20121;-80
2020/12/09 10:26:38;;;;;;;87.80;31.48;;;;;;;0.43;100.00;100995.56;5037490;28;20037;-80
2020/12/09 10:29:08;;;;;;;94.88;31.75;;;;;;;0.56;100.00;101005.97;5035016;28;21665;-78
2020/12/09 10:31:39;;;;;;;96.50;33.30;;;;;;;0.55;100.00;100997.28;5015781;28;20514;-76
2020/12/09 10:34:07;;;;;;;86.00;30.33;;;;;;;0.40;99.81;100976.47;5036514;28;20033;-78
2020/12/09 10:36:33;;;;;;;71.00;25.95;;;;;;;0.38;99.73;100989.50;5036141;28;20709;-78
2020/12/09 10:38:58;;;;;;;67.32;25.70;;;;;;;0.39;99.90;100987.75;5038155;28;20020;-77
2020/12/09 10:41:24;;;;;;;75.38;28.35;;;;;;;0.54;99.95;100982.53;5037307;28;20489;-79
2020/12/09 10:43:50;;;;;;;66.18;25.00;;;;;;;0.43;99.44;100979.97;5036528;28;20032;-78
2020/12/09 10:46:16;;;;;;;64.55;25.60;;;;;;;0.47;99.06;100978.22;5037934;28;20025;-78
2020/12/09 10:48:41;;;;;;;75.78;25.10;;;;;;;0.46;99.35;100982.56;5037160;28;20029;-78
2020/12/09 10:51:07;;;;;;;63.28;25.10;;;;;;;0.63;99.03;100981.69;5032242;28;20476;-78
2020/12/09 10:53:32;;;;;;;62.45;24.77;;;;;;;0.54;98.91;100984.28;5038434;28;20079;-78
2020/12/09 10:55:59;;;;;;;70.53;26.70;;;;;;;0.47;99.19;100988.63;5040984;28;20036;-77
2020/12/09 10:58:28;;;;;;;66.00;26.38;;;;;;;0.52;99.21;100994.69;5034373;28;20044;-78
2020/12/09 11:00:54;;;;;;;67.38;26.58;;;;;;;0.71;99.43;100983.41;5033185;28;20055;-78
2020/12/09 11:03:20;;;;;;;67.38;26.15;;;;;;;0.73;99.17;100984.25;5032146;28;20061;-77